Time;durP1;ratioP1;P1;durP2;ratioP2;P2;SDS_P1;SDS_P2;PMS_P1;PMS_P2;Temp;Humidity;BMP_temperature;BMP_pressure;BME280_temperature;BME280_humidity;BME280_pressure;Samples;Min_cycle;Max_cycle;Signal;HPM_P1;HPM_P2
2022/05/23 00:01:35;;;;;;;;;;;12.80;99.90;;;;;;5092744;28;19908;-78
2022/05/23 00:04:01;;;;;;;;;;;12.80;99.90;;;;;;5094133;28;19912;-78
2022/05/23 00:06:27;;;;;;;;;;;12.80;99.90;;;;;;5096857;28;19919;-77
2022/05/23 00:08:52;;;;;;;;;;;12.70;99.90;;;;;;5097364;28;19912;-78
2022/05/23 00:11:19;;;;;;;;;;;12.70;99.90;;;;;;5097300;28;19908;-78
2022/05/23 00:13:45;;;;;;;;;;;12.60;99.90;;;;;;5096832;28;20149;-78
2022/05/23 00:16:15;;;;;;;;;;;12.60;99.90;;;;;;5096853;28;19908;-78
2022/05/23 00:18:41;;;;;;;;;;;12.50;99.90;;;;;;5096934;28;20388;-78
2022/05/23 00:21:06;;;;;;;;;;;12.50;99.90;;;;;;5097132;28;19909;-78
2022/05/23 00:23:32;;;;;;;;;;;12.50;99.90;;;;;;5096644;28;19908;-77
2022/05/23 00:25:57;;;;;;;;;;;12.50;99.90;;;;;;5096910;28;19912;-78
2022/05/23 00:28:23;;;;;;;;;;;12.50;99.90;;;;;;5096932;28;19912;-78
2022/05/23 00:30:48;;;;;;;;;;;12.50;99.90;;;;;;5096132;28;19908;-78
2022/05/23 00:35:58;;;;;;;;;;;12.60;99.90;;;;;;5096838;28;20045;-78
2022/05/23 00:38:24;;;;;;;;;;;12.70;99.90;;;;;;5097033;28;20379;-78
2022/05/23 00:43:13;;;;;;;;;;;12.70;99.90;;;;;;5096232;28;19908;-78
2022/05/23 00:43:41;;;;;;;;;;;12.70;99.90;;;;;;5106240;28;19912;-77
2022/05/23 00:46:07;;;;;;;;;;;12.70;99.90;;;;;;5116295;28;19919;-78
2022/05/23 00:48:33;;;;;;;;;;;12.70;99.90;;;;;;5098103;28;19913;-78
2022/05/23 00:51:00;;;;;;;;;;;12.80;99.90;;;;;;5096987;28;19977;-79
2022/05/23 00:53:37;;;;;;;;;;;12.80;99.90;;;;;;5096488;28;19930;-78
2022/05/23 00:56:05;;;;;;;;;;;12.70;99.90;;;;;;5096531;28;20349;-78
2022/05/23 00:58:32;;;;;;;;;;;12.70;99.90;;;;;;5094669;28;19920;-78
2022/05/23 01:01:01;;;;;;;;;;;12.70;99.90;;;;;;5095023;28;19908;-78
2022/05/23 01:03:27;;;;;;;;;;;12.70;99.90;;;;;;5094668;28;20388;-78
2022/05/23 01:05:54;;;;;;;;;;;12.80;99.90;;;;;;5094718;28;19955;-78
2022/05/23 01:08:21;;;;;;;;;;;12.80;99.90;;;;;;5095027;28;19919;-78
2022/05/23 01:10:46;;;;;;;;;;;12.80;99.90;;;;;;5094439;28;20379;-78
2022/05/23 01:13:13;;;;;;;;;;;12.80;99.90;;;;;;5094788;28;19909;-78
2022/05/23 01:15:38;;;;;;;;;;;12.80;99.90;;;;;;5093676;28;19908;-78
2022/05/23 01:18:04;;;;;;;;;;;12.70;99.90;;;;;;5094888;28;19916;-78
2022/05/23 01:20:30;;;;;;;;;;;12.60;99.90;;;;;;5094245;28;20315;-78
2022/05/23 01:23:04;;;;;;;;;;;12.60;99.90;;;;;;5094692;28;19908;-78
2022/05/23 01:25:33;;;;;;;;;;;12.60;99.90;;;;;;5094066;28;20375;-77
2022/05/23 01:27:58;;;;;;;;;;;12.50;99.90;;;;;;5094523;28;19947;-78
2022/05/23 01:30:24;;;;;;;;;;;12.50;99.90;;;;;;5094413;28;19908;-78
2022/05/23 01:32:50;;;;;;;;;;;12.50;99.90;;;;;;5094027;28;20273;-78
2022/05/23 01:35:16;;;;;;;;;;;12.50;99.90;;;;;;5094456;28;19943;-79
2022/05/23 01:37:41;;;;;;;;;;;12.60;99.90;;;;;;5093935;28;19912;-78
2022/05/23 01:40:08;;;;;;;;;;;12.60;99.90;;;;;;5094194;28;19915;-78
2022/05/23 01:42:34;;;;;;;;;;;12.50;99.90;;;;;;5093660;28;19915;-79
2022/05/23 01:45:00;;;;;;;;;;;12.50;99.90;;;;;;5094201;28;19908;-78
2022/05/23 01:47:25;;;;;;;;;;;12.60;99.90;;;;;;5094088;28;19920;-79
2022/05/23 01:49:51;;;;;;;;;;;12.60;99.90;;;;;;5093185;28;19920;-78
2022/05/23 01:52:16;;;;;;;;;;;12.60;99.90;;;;;;5094263;28;19908;-79
2022/05/23 01:54:42;;;;;;;;;;;12.60;99.90;;;;;;5093848;28;20004;-79
2022/05/23 01:57:09;;;;;;;;;;;12.70;99.90;;;;;;5017228;28;2201462;-79
2022/05/23 02:02:19;;;;;;;;;;;12.60;99.90;;;;;;5095237;28;20301;-79
2022/05/23 02:04:47;;;;;;;;;;;12.70;99.90;;;;;;5094658;28;19908;-79
2022/05/23 02:07:13;;;;;;;;;;;12.60;99.90;;;;;;5093725;28;20291;-80
2022/05/23 02:09:38;;;;;;;;;;;12.60;99.90;;;;;;5094579;28;20007;-79
2022/05/23 02:12:05;;;;;;;;;;;12.60;99.90;;;;;;5094953;28;20365;-79
2022/05/23 02:14:30;;;;;;;;;;;12.60;99.90;;;;;;5094846;28;20003;-79
2022/05/23 02:16:56;;;;;;;;;;;12.60;99.90;;;;;;5094441;28;20336;-79
2022/05/23 02:19:22;;;;;;;;;;;12.50;99.90;;;;;;5094784;28;19918;-79
2022/05/23 02:21:47;;;;;;;;;;;12.60;99.90;;;;;;5094008;28;19953;-79
2022/05/23 02:24:13;;;;;;;;;;;12.60;99.90;;;;;;5094479;28;19908;-79
2022/05/23 02:26:38;;;;;;;;;;;12.50;99.90;;;;;;5093430;28;20419;-79
2022/05/23 02:29:06;;;;;;;;;;;12.50;99.90;;;;;;5094600;28;20419;-79
2022/05/23 02:31:32;;;;;;;;;;;12.50;99.90;;;;;;5094430;28;19912;-79
2022/05/23 02:33:57;;;;;;;;;;;12.50;99.90;;;;;;5094358;28;19908;-79
2022/05/23 02:36:23;;;;;;;;;;;12.50;99.90;;;;;;5094407;28;20369;-79
2022/05/23 02:38:48;;;;;;;;;;;12.50;99.90;;;;;;5092617;28;19931;-79
2022/05/23 02:41:14;;;;;;;;;;;12.40;99.90;;;;;;5094391;28;19916;-79
2022/05/23 02:43:39;;;;;;;;;;;12.40;99.90;;;;;;5093973;28;19944;-78
2022/05/23 02:46:05;;;;;;;;;;;12.40;99.90;;;;;;5094155;28;20277;-79
2022/05/23 02:48:30;;;;;;;;;;;12.40;99.90;;;;;;5094202;28;20131;-80
2022/05/23 02:50:56;;;;;;;;;;;12.30;99.90;;;;;;5093718;28;19912;-79
2022/05/23 02:53:21;;;;;;;;;;;12.30;99.90;;;;;;5092893;28;19946;-79
2022/05/23 02:55:47;;;;;;;;;;;12.30;99.90;;;;;;5093723;28;20411;-79
2022/05/23 02:58:13;;;;;;;;;;;12.30;99.90;;;;;;5094082;28;20003;-79
2022/05/23 03:00:38;;;;;;;;;;;12.30;99.90;;;;;;5093586;28;19908;-79
2022/05/23 03:03:06;;;;;;;;;;;12.40;99.90;;;;;;5093651;28;19915;-79
2022/05/23 03:05:36;;;;;;;;;;;12.40;99.90;;;;;;5093958;28;19951;-79
2022/05/23 03:08:02;;;;;;;;;;;12.40;99.90;;;;;;5093894;28;19927;-79
2022/05/23 03:10:27;;;;;;;;;;;12.40;99.90;;;;;;5093856;28;19908;-79
2022/05/23 03:12:53;;;;;;;;;;;12.40;99.90;;;;;;5093484;28;19915;-79
2022/05/23 03:15:19;;;;;;;;;;;12.30;99.90;;;;;;5093810;28;20257;-80
2022/05/23 03:17:45;;;;;;;;;;;12.40;99.90;;;;;;5093261;28;19916;-79
2022/05/23 03:20:11;;;;;;;;;;;12.40;99.90;;;;;;5093711;28;19912;-79
2022/05/23 03:28:05;;;;;;;;;;;12.30;99.90;;;;;;5093414;28;19974;-79
2022/05/23 03:30:31;;;;;;;;;;;12.30;99.90;;;;;;5093588;28;20361;-79
2022/05/23 03:33:00;;;;;;;;;;;12.30;99.90;;;;;;5093011;28;19923;-79
2022/05/23 03:35:26;;;;;;;;;;;12.20;99.90;;;;;;5091897;28;19911;-79
2022/05/23 03:37:52;;;;;;;;;;;12.20;99.90;;;;;;5092692;28;20292;-79
2022/05/23 03:40:18;;;;;;;;;;;12.10;99.90;;;;;;5093373;28;19961;-79
2022/05/23 03:42:43;;;;;;;;;;;12.10;99.90;;;;;;5092924;28;19908;-79
2022/05/23 03:45:09;;;;;;;;;;;12.10;99.90;;;;;;5093655;28;19908;-79
2022/05/23 03:47:35;;;;;;;;;;;12.10;99.90;;;;;;5093573;28;20448;-79
2022/05/23 03:50:00;;;;;;;;;;;12.10;99.90;;;;;;5092891;28;19959;-79
2022/05/23 03:52:26;;;;;;;;;;;12.00;99.90;;;;;;5093370;28;19915;-80
2022/05/23 03:54:51;;;;;;;;;;;12.10;99.90;;;;;;5092849;28;19973;-79
2022/05/23 03:57:17;;;;;;;;;;;12.10;99.90;;;;;;5093057;28;19927;-80
2022/05/23 03:59:45;;;;;;;;;;;12.10;99.90;;;;;;5092751;28;19909;-79
2022/05/23 04:02:11;;;;;;;;;;;12.10;99.90;;;;;;5093132;28;19915;-81
2022/05/23 04:04:37;;;;;;;;;;;12.10;99.90;;;;;;5093209;28;19908;-80
2022/05/23 04:07:04;;;;;;;;;;;12.20;99.90;;;;;;5092551;28;20372;-79
2022/05/23 04:09:30;;;;;;;;;;;12.20;99.90;;;;;;5092793;28;20336;-79
2022/05/23 04:11:57;;;;;;;;;;;12.10;99.90;;;;;;5092723;28;19947;-79
2022/05/23 04:14:23;;;;;;;;;;;12.20;99.90;;;;;;5093066;28;19955;-79
2022/05/23 04:16:49;;;;;;;;;;;12.10;99.90;;;;;;5092580;28;20269;-79
2022/05/23 04:19:15;;;;;;;;;;;12.00;99.90;;;;;;5093101;28;19908;-79
2022/05/23 04:21:41;;;;;;;;;;;12.00;99.90;;;;;;5092659;28;19908;-77
2022/05/23 04:24:07;;;;;;;;;;;12.00;99.90;;;;;;5093389;28;19915;-79
2022/05/23 04:26:33;;;;;;;;;;;12.10;99.90;;;;;;5092596;28;19962;-79
2022/05/23 04:28:58;;;;;;;;;;;12.10;99.90;;;;;;5092525;28;19908;-79
2022/05/23 04:31:24;;;;;;;;;;;12.10;99.90;;;;;;5092588;28;19998;-80
2022/05/23 04:36:33;;;;;;;;;;;12.20;99.90;;;;;;5092675;28;19946;-80
2022/05/23 04:38:59;;;;;;;;;;;12.20;99.90;;;;;;5092705;28;19908;-79
2022/05/23 04:41:25;;;;;;;;;;;12.20;99.90;;;;;;5092841;28;19907;-79
2022/05/23 04:43:50;;;;;;;;;;;12.20;99.90;;;;;;5092430;28;19915;-79
2022/05/23 04:46:16;;;;;;;;;;;12.20;99.90;;;;;;5092792;28;20250;-79
2022/05/23 04:51:25;;;;;;;;;;;12.30;99.90;;;;;;5095668;28;19931;-79
2022/05/23 04:53:54;;;;;;;;;;;12.30;99.90;;;;;;5096366;28;20337;-79
2022/05/23 04:56:20;;;;;;;;;;;12.20;99.90;;;;;;5096277;28;19954;-79
2022/05/23 04:58:46;;;;;;;;;;;12.30;99.90;;;;;;5095988;28;19920;-79
2022/05/23 05:01:11;;;;;;;;;;;12.40;99.90;;;;;;5096496;28;19926;-79
2022/05/23 05:03:37;;;;;;;;;;;12.40;99.90;;;;;;5096246;28;20265;-79
2022/05/23 05:06:03;;;;;;;;;;;12.40;99.90;;;;;;5095712;28;19973;-79
2022/05/23 05:08:29;;;;;;;;;;;12.40;99.90;;;;;;5096165;28;19908;-79
2022/05/23 05:10:57;;;;;;;;;;;12.50;99.90;;;;;;5095646;28;20265;-79
2022/05/23 05:13:23;;;;;;;;;;;12.50;99.90;;;;;;5096023;28;19908;-79
2022/05/23 05:15:49;;;;;;;;;;;12.50;99.90;;;;;;5094243;28;19908;-79
2022/05/23 05:18:15;;;;;;;;;;;12.50;99.90;;;;;;5096129;28;19915;-80
2022/05/23 05:20:40;;;;;;;;;;;12.40;99.90;;;;;;5096115;28;20353;-80
2022/05/23 05:23:06;;;;;;;;;;;12.40;99.90;;;;;;5096058;28;19908;-80
2022/05/23 05:25:31;;;;;;;;;;;12.50;99.90;;;;;;5095879;28;20052;-79
2022/05/23 05:27:57;;;;;;;;;;;12.50;99.90;;;;;;5095024;28;20369;-80
2022/05/23 05:30:23;;;;;;;;;;;12.40;99.90;;;;;;5095825;28;20372;-79
2022/05/23 05:33:00;;;;;;;;;;;12.50;99.90;;;;;;5095251;28;19973;-80
2022/05/23 05:35:30;;;;;;;;;;;12.50;99.90;;;;;;5095483;28;19908;-79
2022/05/23 05:38:02;;;;;;;;;;;12.50;99.90;;;;;;5095244;28;19982;-79
2022/05/23 05:40:29;;;;;;;;;;;12.50;99.90;;;;;;5095594;28;19912;-80
2022/05/23 05:42:58;;;;;;;;;;;12.50;99.90;;;;;;5095104;28;20379;-80
2022/05/23 05:45:29;;;;;;;;;;;12.50;99.90;;;;;;5095291;28;19908;-80
2022/05/23 05:47:54;;;;;;;;;;;12.50;99.90;;;;;;5094950;28;19916;-80
2022/05/23 05:50:23;;;;;;;;;;;12.50;99.90;;;;;;5095344;28;19918;-79
2022/05/23 05:52:49;;;;;;;;;;;12.50;99.90;;;;;;5094546;28;20360;-79
2022/05/23 05:55:15;;;;;;;;;;;12.60;99.90;;;;;;5095579;28;19908;-80
2022/05/23 05:57:41;;;;;;;;;;;12.70;99.90;;;;;;5095150;28;19927;-79
2022/05/23 06:00:07;;;;;;;;;;;12.80;99.90;;;;;;5094883;28;19944;-79
2022/05/23 06:02:33;;;;;;;;;;;12.90;99.90;;;;;;5093859;28;20006;-79
2022/05/23 06:04:59;;;;;;;;;;;13.10;99.90;;;;;;5094667;28;19974;-79
2022/05/23 06:12:56;;;;;;;;;;;13.60;99.90;;;;;;5094283;28;19915;-79
2022/05/23 06:15:22;;;;;;;;;;;13.90;99.90;;;;;;5095080;28;19908;-80
2022/05/23 06:17:48;;;;;;;;;;;14.00;99.90;;;;;;5094385;28;19908;-78
2022/05/23 06:20:14;;;;;;;;;;;14.10;99.90;;;;;;5094708;28;19947;-79
2022/05/23 06:22:39;;;;;;;;;;;14.10;99.90;;;;;;5095068;28;19908;-81
2022/05/23 06:25:06;;;;;;;;;;;14.00;99.90;;;;;;5094069;28;20367;-79
2022/05/23 06:27:31;;;;;;;;;;;13.90;99.90;;;;;;5094319;28;19920;-79
2022/05/23 06:29:57;;;;;;;;;;;13.80;99.90;;;;;;5094079;28;19931;-79
2022/05/23 06:32:22;;;;;;;;;;;13.60;99.90;;;;;;5094601;28;19908;-79
2022/05/23 06:34:48;;;;;;;;;;;13.50;99.90;;;;;;5094232;28;19908;-80
2022/05/23 06:37:14;;;;;;;;;;;13.50;99.90;;;;;;5094512;28;19912;-79
2022/05/23 06:39:39;;;;;;;;;;;13.50;99.90;;;;;;5094267;28;19955;-80
2022/05/23 06:42:05;;;;;;;;;;;13.60;99.90;;;;;;5093958;28;19915;-80
2022/05/23 06:44:31;;;;;;;;;;;13.60;99.90;;;;;;5094285;28;19908;-80
2022/05/23 06:46:56;;;;;;;;;;;13.60;99.90;;;;;;5093741;28;20376;-79
2022/05/23 06:49:22;;;;;;;;;;;13.60;99.90;;;;;;5094116;28;19908;-80
2022/05/23 06:51:49;;;;;;;;;;;13.60;99.90;;;;;;5099184;28;19991;-79
2022/05/23 06:54:15;;;;;;;;;;;13.60;99.90;;;;;;5108237;28;19908;-80
2022/05/23 06:56:42;;;;;;;;;;;13.50;99.90;;;;;;5097129;28;20079;-80
2022/05/23 06:59:09;;;;;;;;;;;13.50;99.90;;;;;;5094286;28;19920;-80
2022/05/23 07:01:35;;;;;;;;;;;13.60;99.90;;;;;;5093587;28;20300;-81
2022/05/23 07:04:01;;;;;;;;;;;13.60;99.90;;;;;;5093557;28;19908;-81
2022/05/23 07:14:39;;;;;;;;;;;14.50;99.90;;;;;;5093595;28;19961;-80
2022/05/23 07:17:05;;;;;;;;;;;14.50;99.90;;;;;;5093111;28;19912;-80
2022/05/23 07:19:31;;;;;;;;;;;14.60;99.90;;;;;;5093636;28;20395;-80
2022/05/23 07:21:59;;;;;;;;;;;14.70;99.90;;;;;;5093169;28;20376;-80
2022/05/23 07:24:26;;;;;;;;;;;14.90;99.90;;;;;;5093514;28;19908;-80
2022/05/23 07:26:54;;;;;;;;;;;15.00;99.90;;;;;;5092994;28;20425;-77
2022/05/23 07:29:22;;;;;;;;;;;15.10;99.90;;;;;;5093728;28;19931;-80
2022/05/23 07:31:51;;;;;;;;;;;14.90;99.90;;;;;;5093738;28;19998;-80
2022/05/23 07:34:17;;;;;;;;;;;14.80;99.90;;;;;;5093094;28;19915;-80
2022/05/23 07:36:43;;;;;;;;;;;14.80;99.90;;;;;;5093120;28;19912;-80
2022/05/23 07:39:09;;;;;;;;;;;14.60;99.90;;;;;;5092972;28;19908;-80
2022/05/23 07:41:35;;;;;;;;;;;14.50;99.90;;;;;;5091784;28;19908;-79
2022/05/23 07:44:01;;;;;;;;;;;14.60;99.90;;;;;;5092956;28;20268;-79
2022/05/23 07:46:26;;;;;;;;;;;14.60;99.90;;;;;;5093137;28;19995;-79
2022/05/23 07:48:52;;;;;;;;;;;14.90;99.90;;;;;;5095694;28;20365;-80
2022/05/23 07:51:18;;;;;;;;;;;15.10;99.90;;;;;;5100993;28;19912;-80
2022/05/23 08:01:57;;;;;;;;;;;15.20;99.90;;;;;;5093003;28;19953;-80
2022/05/23 08:04:22;;;;;;;;;;;15.00;99.90;;;;;;5093570;28;19908;-79
2022/05/23 08:06:48;;;;;;;;;;;14.90;99.90;;;;;;5093075;28;19916;-80
2022/05/23 08:09:15;;;;;;;;;;;15.10;99.90;;;;;;5092777;28;19923;-80
2022/05/23 08:11:42;;;;;;;;;;;15.10;99.90;;;;;;5092929;28;20353;-80
2022/05/23 08:14:08;;;;;;;;;;;15.10;99.90;;;;;;5092590;28;20307;-79
2022/05/23 08:16:35;;;;;;;;;;;15.00;99.90;;;;;;5093171;28;19908;-79
2022/05/23 08:19:02;;;;;;;;;;;15.00;99.90;;;;;;5093047;28;20003;-79
2022/05/23 08:21:28;;;;;;;;;;;14.90;99.90;;;;;;5093172;28;19908;-80
2022/05/23 08:23:54;;;;;;;;;;;14.80;99.90;;;;;;5093470;28;19915;-79
2022/05/23 08:26:19;;;;;;;;;;;14.70;99.90;;;;;;5095988;28;19920;-80
2022/05/23 08:28:45;;;;;;;;;;;14.60;99.90;;;;;;5096930;28;19962;-80
2022/05/23 08:31:10;;;;;;;;;;;14.60;99.90;;;;;;5096412;28;20408;-79
2022/05/23 08:33:36;;;;;;;;;;;14.60;99.90;;;;;;5096771;28;20350;-79
2022/05/23 08:36:02;;;;;;;;;;;14.70;99.90;;;;;;5096395;28;20357;-79
2022/05/23 08:38:27;;;;;;;;;;;14.80;99.90;;;;;;5096702;28;20246;-79
2022/05/23 08:41:12;;;;;;;;;;;15.10;99.90;;;;;;5096641;28;19908;-80
2022/05/23 08:44:07;;;;;;;;;;;15.40;99.90;;;;;;5096651;28;19912;-80
2022/05/23 08:46:35;;;;;;;;;;;15.60;99.90;;;;;;5058937;28;20372;-80
2022/05/23 08:49:04;;;;;;;;;;;15.70;99.90;;;;;;5096419;28;19908;-80
2022/05/23 08:51:35;;;;;;;;;;;15.90;99.90;;;;;;5096520;28;19908;-80
2022/05/23 08:54:04;;;;;;;;;;;15.80;99.90;;;;;;5096065;28;19908;-79
2022/05/23 08:56:33;;;;;;;;;;;15.80;99.90;;;;;;5096444;28;19908;-80
2022/05/23 08:59:00;;;;;;;;;;;15.80;99.90;;;;;;5095959;28;19952;-79
2022/05/23 09:01:40;;;;;;;;;;;15.70;99.90;;;;;;5095991;28;19956;-80
2022/05/23 09:04:15;;;;;;;;;;;15.40;99.90;;;;;;5096254;28;19915;-80
2022/05/23 09:06:48;;;;;;;;;;;15.20;99.90;;;;;;5095756;28;19924;-80
2022/05/23 09:09:16;;;;;;;;;;;15.20;99.90;;;;;;5095644;28;19908;-80
2022/05/23 09:11:42;;;;;;;;;;;15.10;99.90;;;;;;5095812;28;19912;-80
2022/05/23 09:14:13;;;;;;;;;;;15.10;99.90;;;;;;5095634;28;20323;-80
2022/05/23 09:16:40;;;;;;;;;;;15.00;99.90;;;;;;5096139;28;19915;-80
2022/05/23 09:19:25;;;;;;;;;;;15.10;99.90;;;;;;5095449;28;19958;-79
2022/05/23 09:24:38;;;;;;;;;;;15.10;99.90;;;;;;5095914;28;19966;-79
2022/05/23 09:27:27;;;;;;;;;;;15.30;99.90;;;;;;5095512;28;19973;-79
2022/05/23 09:29:54;;;;;;;;;;;15.40;99.90;;;;;;5089586;28;19908;-79
2022/05/23 09:32:24;;;;;;;;;;;15.60;99.90;;;;;;5095318;28;19912;-80
2022/05/23 09:34:53;;;;;;;;;;;15.80;99.90;;;;;;5095693;28;20314;-80
2022/05/23 09:37:24;;;;;;;;;;;16.10;99.90;;;;;;5094883;28;19908;-80
2022/05/23 09:39:54;;;;;;;;;;;16.40;99.90;;;;;;5095649;28;19915;-80
2022/05/23 09:48:13;;;;;;;;;;;17.00;99.90;;;;;;5094656;28;19981;-80
2022/05/23 09:50:40;;;;;;;;;;;17.20;99.90;;;;;;5095003;28;19915;-80
2022/05/23 09:53:16;;;;;;;;;;;17.00;99.90;;;;;;5094815;28;19963;-79
2022/05/23 09:55:43;;;;;;;;;;;16.70;99.90;;;;;;5095336;28;19912;-80
2022/05/23 09:58:11;;;;;;;;;;;16.50;99.90;;;;;;5094702;28;19931;-79
2022/05/23 10:00:54;;;;;;;;;;;16.20;99.90;;;;;;5095066;28;19942;-80
2022/05/23 10:03:20;;;;;;;;;;;16.10;99.90;;;;;;5094725;28;20002;-80
2022/05/23 10:05:50;;;;;;;;;;;16.40;99.90;;;;;;5094920;28;19947;-80
2022/05/23 10:08:28;;;;;;;;;;;16.70;99.90;;;;;;5104394;28;19916;-79
2022/05/23 10:10:55;;;;;;;;;;;16.60;99.90;;;;;;5107065;28;19909;-79
2022/05/23 10:13:23;;;;;;;;;;;16.50;99.90;;;;;;5095721;28;20300;-79
2022/05/23 10:15:54;;;;;;;;;;;16.70;99.90;;;;;;5095665;28;19908;-80
2022/05/23 10:18:24;;;;;;;;;;;16.80;99.90;;;;;;5094309;28;19908;-79
2022/05/23 10:20:50;;;;;;;;;;;16.90;99.90;;;;;;5094786;28;19974;-80
2022/05/23 10:23:21;;;;;;;;;;;17.00;99.90;;;;;;5094249;28;19914;-79
2022/05/23 10:25:52;;;;;;;;;;;17.00;99.90;;;;;;5094947;28;19958;-79
2022/05/23 10:28:22;;;;;;;;;;;17.00;99.90;;;;;;5094195;28;19916;-80
2022/05/23 10:30:59;;;;;;;;;;;16.90;99.90;;;;;;5094354;28;19916;-79
2022/05/23 10:33:27;;;;;;;;;;;16.80;99.90;;;;;;5094057;28;20358;-80
2022/05/23 10:36:02;;;;;;;;;;;16.50;99.90;;;;;;5094468;28;19908;-79
2022/05/23 10:44:05;;;;;;;;;;;16.90;99.90;;;;;;5094157;28;19973;-79
2022/05/23 10:46:33;;;;;;;;;;;16.90;99.90;;;;;;5093884;28;20281;-80
2022/05/23 10:48:59;;;;;;;;;;;16.70;99.90;;;;;;5093438;28;19908;-80
2022/05/23 10:51:35;;;;;;;;;;;16.70;99.90;;;;;;5093615;28;20387;-79
2022/05/23 10:54:30;;;;;;;;;;;16.80;99.90;;;;;;5094098;28;20384;-80
2022/05/23 10:57:11;;;;;;;;;;;16.90;99.90;;;;;;5056121;28;20400;-80
2022/05/23 10:59:57;;;;;;;;;;;16.90;99.90;;;;;;5094032;28;19991;-80
2022/05/23 11:02:30;;;;;;;;;;;16.90;99.90;;;;;;5093522;28;20026;-80
2022/05/23 11:05:09;;;;;;;;;;;16.70;99.90;;;;;;5093772;28;20357;-79
2022/05/23 11:07:34;;;;;;;;;;;16.60;99.90;;;;;;5093758;28;19916;-80
2022/05/23 11:10:14;;;;;;;;;;;16.50;99.90;;;;;;5093731;28;19908;-80
2022/05/23 11:12:46;;;;;;;;;;;16.40;99.90;;;;;;5093747;28;19908;-79
2022/05/23 11:15:31;;;;;;;;;;;16.30;99.90;;;;;;5093020;28;19912;-79
2022/05/23 11:18:15;;;;;;;;;;;16.20;99.90;;;;;;5071773;28;19953;-79
2022/05/23 11:20:41;;;;;;;;;;;16.20;99.90;;;;;;5093646;28;20383;-80
2022/05/23 11:23:19;;;;;;;;;;;16.50;99.90;;;;;;5093150;28;19908;-78
2022/05/23 11:25:47;;;;;;;;;;;16.70;99.90;;;;;;5093542;28;19908;-80
2022/05/23 11:34:24;;;;;;;;;;;17.00;99.90;;;;;;5074924;28;19919;-80
2022/05/23 11:39:50;;;;;;;;;;;16.80;99.90;;;;;;5092869;28;20007;-79
2022/05/23 11:42:21;;;;;;;;;;;16.50;99.90;;;;;;5092862;28;20334;-79
2022/05/23 11:44:49;;;;;;;;;;;16.20;99.90;;;;;;5093371;28;19912;-80
2022/05/23 11:47:25;;;;;;;;;;;16.00;99.90;;;;;;5092776;28;19986;-79
2022/05/23 11:50:02;;;;;;;;;;;15.70;99.90;;;;;;5093255;28;19946;-80
2022/05/23 11:52:40;;;;;;;;;;;15.60;99.90;;;;;;5092980;28;20023;-79
2022/05/23 11:55:08;;;;;;;;;;;15.30;99.90;;;;;;5093333;28;19914;-80
2022/05/23 11:57:35;;;;;;;;;;;15.20;99.90;;;;;;5092885;28;19927;-80
2022/05/23 12:00:24;;;;;;;;;;;14.80;99.90;;;;;;5095668;28;19955;-81
2022/05/23 12:03:22;;;;;;;;;;;14.70;99.90;;;;;;5097533;28;19912;-81
2022/05/23 12:06:07;;;;;;;;;;;14.60;99.90;;;;;;5073699;28;20354;-81
2022/05/23 12:08:37;;;;;;;;;;;14.50;99.90;;;;;;5096855;28;19942;-81
2022/05/23 12:11:18;;;;;;;;;;;14.60;99.90;;;;;;5097229;28;19908;-81
2022/05/23 12:13:49;;;;;;;;;;;14.60;99.90;;;;;;5097171;28;20011;-80
2022/05/23 12:16:26;;;;;;;;;;;14.90;99.90;;;;;;5096726;28;19908;-79
2022/05/23 12:19:11;;;;;;;;;;;15.30;99.90;;;;;;5097222;28;19912;-80
2022/05/23 12:21:37;;;;;;;;;;;15.60;99.90;;;;;;5096994;28;19915;-80
2022/05/23 12:24:26;;;;;;;;;;;15.90;99.90;;;;;;5097034;28;19908;-79
2022/05/23 12:26:53;;;;;;;;;;;16.10;99.90;;;;;;5096922;28;20027;-79
2022/05/23 12:29:24;;;;;;;;;;;16.20;99.90;;;;;;5096546;28;19920;-80
2022/05/23 12:32:08;;;;;;;;;;;16.10;99.90;;;;;;5097172;28;19961;-87
2022/05/23 12:34:39;;;;;;;;;;;16.20;99.90;;;;;;5095164;28;20410;-82
2022/05/23 12:37:04;;;;;;;;;;;15.90;99.90;;;;;;5105948;28;20416;-83
2022/05/23 12:39:36;;;;;;;;;;;15.60;99.90;;;;;;5102817;28;19952;-83
2022/05/23 12:42:18;;;;;;;;;;;15.20;99.90;;;;;;5100294;28;20361;-85
2022/05/23 12:44:44;;;;;;;;;;;14.80;99.90;;;;;;5101191;28;19908;-87
2022/05/23 12:47:28;;;;;;;;;;;14.60;99.90;;;;;;5103343;28;20304;-88
2022/05/23 12:50:12;;;;;;;;;;;14.40;99.90;;;;;;5096501;28;19969;-84
2022/05/23 12:52:37;;;;;;;;;;;14.20;99.90;;;;;;5096519;28;19915;-83
2022/05/23 12:55:12;;;;;;;;;;;14.00;99.90;;;;;;5096318;28;19908;-81
2022/05/23 12:57:43;;;;;;;;;;;14.10;99.90;;;;;;5096124;28;19955;-80
2022/05/23 13:00:19;;;;;;;;;;;13.90;99.90;;;;;;5096052;28;19908;-80
2022/05/23 13:02:56;;;;;;;;;;;13.90;99.90;;;;;;5096404;28;20257;-80
2022/05/23 13:05:26;;;;;;;;;;;14.00;99.90;;;;;;5095674;28;19939;-80
2022/05/23 13:07:54;;;;;;;;;;;14.00;99.90;;;;;;5096246;28;20273;-81
2022/05/23 13:10:27;;;;;;;;;;;14.20;99.90;;;;;;5095205;28;19912;-80
2022/05/23 13:12:56;;;;;;;;;;;14.30;99.90;;;;;;5096068;28;20031;-80
2022/05/23 13:15:31;;;;;;;;;;;14.50;99.90;;;;;;5095325;28;19908;-80
2022/05/23 13:22:05;;;;;;;;;;;14.80;99.90;;;;;;5095988;28;20006;-80
2022/05/23 13:23:32;;;;;;;;;;;15.50;99.90;;;;;;5095316;28;19915;-80
2022/05/23 13:26:04;;;;;;;;;;;15.70;99.90;;;;;;5095840;28;19908;-81
2022/05/23 13:28:31;;;;;;;;;;;15.60;99.90;;;;;;5095459;28;20049;-80
2022/05/23 13:30:57;;;;;;;;;;;15.60;99.90;;;;;;5095695;28;19946;-80
2022/05/23 13:33:26;;;;;;;;;;;15.60;99.90;;;;;;5095267;28;19912;-80
2022/05/23 13:35:59;;;;;;;;;;;15.80;99.90;;;;;;5097776;28;19916;-80
2022/05/23 13:38:26;;;;;;;;;;;15.80;99.90;;;;;;5095194;28;20357;-80
2022/05/23 13:40:53;;;;;;;;;;;16.00;99.90;;;;;;5095507;28;19912;-81
2022/05/23 13:43:19;;;;;;;;;;;16.20;99.90;;;;;;5095147;28;19914;-80
2022/05/23 13:45:46;;;;;;;;;;;16.30;99.90;;;;;;5095604;28;19990;-81
2022/05/23 13:48:27;;;;;;;;;;;16.30;99.90;;;;;;5095263;28;19927;-81
2022/05/23 13:50:54;;;;;;;;;;;16.20;99.90;;;;;;5095347;28;19915;-81
2022/05/23 13:53:23;;;;;;;;;;;15.90;99.90;;;;;;5094944;28;19991;-80
2022/05/23 13:55:50;;;;;;;;;;;16.00;99.90;;;;;;5095176;28;19912;-81
2022/05/23 13:58:21;;;;;;;;;;;16.10;99.90;;;;;;5095242;28;20361;-78
2022/05/23 14:00:54;;;;;;;;;;;16.40;99.90;;;;;;5095071;28;19962;-81
2022/05/23 14:03:23;;;;;;;;;;;16.60;99.90;;;;;;5095041;28;19908;-81
2022/05/23 14:05:50;;;;;;;;;;;16.80;99.90;;;;;;5095155;28;19962;-81
2022/05/23 14:08:19;;;;;;;;;;;16.80;99.90;;;;;;5094653;28;19920;-81
2022/05/23 14:10:44;;;;;;;;;;;16.70;99.90;;;;;;5094928;28;19915;-80
2022/05/23 14:13:11;;;;;;;;;;;16.70;99.90;;;;;;5094737;28;20303;-81
2022/05/23 14:15:37;;;;;;;;;;;16.80;99.90;;;;;;5094440;28;19912;-80
2022/05/23 14:18:10;;;;;;;;;;;16.90;99.90;;;;;;5094794;28;20377;-80
2022/05/23 14:20:41;;;;;;;;;;;16.90;99.90;;;;;;5094355;28;20395;-80
2022/05/23 14:23:10;;;;;;;;;;;16.90;99.90;;;;;;5093650;28;19909;-81
2022/05/23 14:25:40;;;;;;;;;;;16.70;99.90;;;;;;5094210;28;19917;-81
2022/05/23 14:28:25;;;;;;;;;;;16.60;99.90;;;;;;5094526;28;19916;-80
2022/05/23 14:30:58;;;;;;;;;;;16.30;99.90;;;;;;5094797;28;19915;-80
2022/05/23 14:33:53;;;;;;;;;;;15.90;99.90;;;;;;5094155;28;20007;-79
2022/05/23 14:36:18;;;;;;;;;;;15.60;99.90;;;;;;5085995;28;20392;-77
2022/05/23 14:38:52;;;;;;;;;;;15.40;99.90;;;;;;5094033;28;19908;-78
2022/05/23 14:41:23;;;;;;;;;;;15.30;99.90;;;;;;5094248;28;19914;-78
2022/05/23 14:44:01;;;;;;;;;;;15.20;99.90;;;;;;5094212;28;20348;-78
2022/05/23 14:46:34;;;;;;;;;;;15.00;99.90;;;;;;5093682;28;20376;-78
2022/05/23 14:49:05;;;;;;;;;;;15.10;99.90;;;;;;5093924;28;20386;-78
2022/05/23 14:51:32;;;;;;;;;;;15.20;99.90;;;;;;5093785;28;19909;-78
2022/05/23 14:56:42;;;;;;;;;;;15.80;99.90;;;;;;5093458;28;20416;-78
2022/05/23 15:01:57;;;;;;;;;;;16.10;99.90;;;;;;5094193;28;19961;-79
2022/05/23 15:04:25;;;;;;;;;;;16.30;99.90;;;;;;5093493;28;19908;-78
2022/05/23 15:06:53;;;;;;;;;;;16.50;99.90;;;;;;5094000;28;19923;-79
2022/05/23 15:09:18;;;;;;;;;;;16.90;99.90;;;;;;5094678;28;20300;-79
2022/05/23 15:11:44;;;;;;;;;;;17.00;99.90;;;;;;5093419;28;19908;-79
2022/05/23 15:14:11;;;;;;;;;;;17.30;99.90;;;;;;5093538;28;19915;-78
2022/05/23 15:16:37;;;;;;;;;;;17.30;99.90;;;;;;5093295;28;19915;-79
2022/05/23 15:19:08;;;;;;;;;;;17.30;99.90;;;;;;5093598;28;19916;-79
2022/05/23 15:21:34;;;;;;;;;;;17.20;99.90;;;;;;5092913;28;19954;-78
2022/05/23 15:23:59;;;;;;;;;;;16.90;99.90;;;;;;5093857;28;19912;-80
2022/05/23 15:26:27;;;;;;;;;;;16.80;99.90;;;;;;5093064;28;19916;-79
2022/05/23 15:28:53;;;;;;;;;;;16.70;99.90;;;;;;5093589;28;20029;-78
2022/05/23 15:31:20;;;;;;;;;;;16.40;99.90;;;;;;5093497;28;20373;-78
2022/05/23 15:33:46;;;;;;;;;;;16.20;99.90;;;;;;5092984;28;19961;-78
2022/05/23 15:36:12;;;;;;;;;;;16.10;99.90;;;;;;5093346;28;20258;-78